sensor_id;sensor_type;location;lat;lon;timestamp;temperature;humidity
80560;DHT22;70065;42.700;23.316;2023-07-28T00:02:10;31.40;27.20
80560;DHT22;70065;42.700;23.316;2023-07-28T00:04:36;31.40;27.20
80560;DHT22;70065;42.700;23.316;2023-07-28T00:07:03;31.40;27.30
80560;DHT22;70065;42.700;23.316;2023-07-28T00:09:29;31.40;27.30
80560;DHT22;70065;42.700;23.316;2023-07-28T00:11:56;31.40;27.30
80560;DHT22;70065;42.700;23.316;2023-07-28T00:14:23;31.30;27.10
80560;DHT22;70065;42.700;23.316;2023-07-28T00:16:52;31.40;27.90
80560;DHT22;70065;42.700;23.316;2023-07-28T00:19:18;31.30;27.10
80560;DHT22;70065;42.700;23.316;2023-07-28T00:21:44;31.30;27.30
80560;DHT22;70065;42.700;23.316;2023-07-28T00:24:10;31.30;27.30
80560;DHT22;70065;42.700;23.316;2023-07-28T00:26:36;31.30;27.30
80560;DHT22;70065;42.700;23.316;2023-07-28T00:29:01;31.30;27.40
80560;DHT22;70065;42.700;23.316;2023-07-28T00:31:30;31.30;27.40
80560;DHT22;70065;42.700;23.316;2023-07-28T00:33:56;31.30;27.40
80560;DHT22;70065;42.700;23.316;2023-07-28T00:36:21;31.30;27.40
80560;DHT22;70065;42.700;23.316;2023-07-28T00:38:49;31.30;27.40
80560;DHT22;70065;42.700;23.316;2023-07-28T00:41:14;31.20;27.40
80560;DHT22;70065;42.700;23.316;2023-07-28T00:43:40;31.30;27.50
80560;DHT22;70065;42.700;23.316;2023-07-28T00:46:06;31.20;27.40
80560;DHT22;70065;42.700;23.316;2023-07-28T00:48:32;31.20;28.20
80560;DHT22;70065;42.700;23.316;2023-07-28T00:50:58;31.20;27.50
80560;DHT22;70065;42.700;23.316;2023-07-28T00:53:24;31.30;27.50
80560;DHT22;70065;42.700;23.316;2023-07-28T00:55:50;31.20;27.50
80560;DHT22;70065;42.700;23.316;2023-07-28T00:58:16;31.20;27.50
80560;DHT22;70065;42.700;23.316;2023-07-28T01:00:42;31.20;27.50
80560;DHT22;70065;42.700;23.316;2023-07-28T01:03:07;31.20;27.60
80560;DHT22;70065;42.700;23.316;2023-07-28T01:06:05;31.20;27.60
80560;DHT22;70065;42.700;23.316;2023-07-28T01:11:24;31.10;27.60
80560;DHT22;70065;42.700;23.316;2023-07-28T01:13:49;31.10;27.60
80560;DHT22;70065;42.700;23.316;2023-07-28T01:16:15;31.10;27.50
80560;DHT22;70065;42.700;23.316;2023-07-28T01:18:41;31.10;27.60
80560;DHT22;70065;42.700;23.316;2023-07-28T01:21:19;31.10;27.70
80560;DHT22;70065;42.700;23.316;2023-07-28T01:23:55;31.00;27.60
80560;DHT22;70065;42.700;23.316;2023-07-28T01:26:37;31.10;27.70
80560;DHT22;70065;42.700;23.316;2023-07-28T01:29:05;31.10;27.70
80560;DHT22;70065;42.700;23.316;2023-07-28T01:31:31;31.00;27.70
80560;DHT22;70065;42.700;23.316;2023-07-28T01:33:57;31.00;27.70
80560;DHT22;70065;42.700;23.316;2023-07-28T01:36:22;31.00;27.70
80560;DHT22;70065;42.700;23.316;2023-07-28T01:38:48;31.00;27.70
80560;DHT22;70065;42.700;23.316;2023-07-28T01:41:14;31.00;27.80
80560;DHT22;70065;42.700;23.316;2023-07-28T01:43:40;31.00;27.80
80560;DHT22;70065;42.700;23.316;2023-07-28T01:46:07;31.00;27.80
80560;DHT22;70065;42.700;23.316;2023-07-28T01:48:33;31.00;27.80
80560;DHT22;70065;42.700;23.316;2023-07-28T01:50:59;31.00;28.60
80560;DHT22;70065;42.700;23.316;2023-07-28T01:53:25;31.00;27.80
80560;DHT22;70065;42.700;23.316;2023-07-28T01:55:51;31.00;27.80
80560;DHT22;70065;42.700;23.316;2023-07-28T01:58:16;30.90;27.80
80560;DHT22;70065;42.700;23.316;2023-07-28T02:00:42;30.90;27.80
80560;DHT22;70065;42.700;23.316;2023-07-28T02:03:08;30.90;27.80
80560;DHT22;70065;42.700;23.316;2023-07-28T02:05:33;30.90;27.80
80560;DHT22;70065;42.700;23.316;2023-07-28T02:07:59;30.90;27.90
80560;DHT22;70065;42.700;23.316;2023-07-28T02:10:28;30.90;27.90
80560;DHT22;70065;42.700;23.316;2023-07-28T02:12:54;30.80;27.80
80560;DHT22;70065;42.700;23.316;2023-07-28T02:15:20;30.90;27.90
80560;DHT22;70065;42.700;23.316;2023-07-28T02:17:46;30.90;27.90
80560;DHT22;70065;42.700;23.316;2023-07-28T02:20:11;30.80;27.90
80560;DHT22;70065;42.700;23.316;2023-07-28T02:22:41;30.80;27.90
80560;DHT22;70065;42.700;23.316;2023-07-28T02:25:09;30.80;27.90
80560;DHT22;70065;42.700;23.316;2023-07-28T02:27:36;30.80;27.90
80560;DHT22;70065;42.700;23.316;2023-07-28T02:30:02;30.80;28.00
80560;DHT22;70065;42.700;23.316;2023-07-28T02:32:28;30.80;28.00
80560;DHT22;70065;42.700;23.316;2023-07-28T02:34:54;30.80;28.00
80560;DHT22;70065;42.700;23.316;2023-07-28T02:37:21;30.80;28.00
80560;DHT22;70065;42.700;23.316;2023-07-28T02:39:46;30.80;28.00
80560;DHT22;70065;42.700;23.316;2023-07-28T02:42:12;30.80;28.00
80560;DHT22;70065;42.700;23.316;2023-07-28T02:44:38;30.80;28.00
80560;DHT22;70065;42.700;23.316;2023-07-28T02:47:04;30.80;28.00
80560;DHT22;70065;42.700;23.316;2023-07-28T02:49:30;30.80;28.10
80560;DHT22;70065;42.700;23.316;2023-07-28T02:51:58;30.80;28.10
80560;DHT22;70065;42.700;23.316;2023-07-28T02:54:24;30.80;28.10
80560;DHT22;70065;42.700;23.316;2023-07-28T02:56:51;30.70;28.00
80560;DHT22;70065;42.700;23.316;2023-07-28T02:59:17;30.70;28.10
80560;DHT22;70065;42.700;23.316;2023-07-28T03:01:42;30.70;28.80
80560;DHT22;70065;42.700;23.316;2023-07-28T03:04:08;30.70;28.10
80560;DHT22;70065;42.700;23.316;2023-07-28T03:06:34;30.80;28.10
80560;DHT22;70065;42.700;23.316;2023-07-28T03:08:59;30.70;28.10
80560;DHT22;70065;42.700;23.316;2023-07-28T03:11:25;30.80;28.10
80560;DHT22;70065;42.700;23.316;2023-07-28T03:13:51;30.70;28.20
80560;DHT22;70065;42.700;23.316;2023-07-28T03:16:16;30.70;28.10
80560;DHT22;70065;42.700;23.316;2023-07-28T03:18:42;30.70;28.10
80560;DHT22;70065;42.700;23.316;2023-07-28T03:21:11;30.70;28.10
80560;DHT22;70065;42.700;23.316;2023-07-28T03:23:37;30.70;28.10
80560;DHT22;70065;42.700;23.316;2023-07-28T03:26:03;30.80;28.10
80560;DHT22;70065;42.700;23.316;2023-07-28T03:28:28;30.80;28.10
80560;DHT22;70065;42.700;23.316;2023-07-28T03:30:54;30.80;28.10
80560;DHT22;70065;42.700;23.316;2023-07-28T03:33:20;30.80;28.10
80560;DHT22;70065;42.700;23.316;2023-07-28T03:35:45;30.80;28.10
80560;DHT22;70065;42.700;23.316;2023-07-28T03:38:11;30.80;28.00
80560;DHT22;70065;42.700;23.316;2023-07-28T03:40:37;30.90;28.00
80560;DHT22;70065;42.700;23.316;2023-07-28T03:43:03;30.90;28.00
80560;DHT22;70065;42.700;23.316;2023-07-28T03:45:29;30.90;27.90
80560;DHT22;70065;42.700;23.316;2023-07-28T03:47:54;31.00;28.60
80560;DHT22;70065;42.700;23.316;2023-07-28T03:50:20;31.00;27.80
80560;DHT22;70065;42.700;23.316;2023-07-28T03:52:46;31.10;27.80
80560;DHT22;70065;42.700;23.316;2023-07-28T03:55:12;31.10;27.70
80560;DHT22;70065;42.700;23.316;2023-07-28T03:57:38;31.20;27.70
80560;DHT22;70065;42.700;23.316;2023-07-28T04:00:05;31.40;27.60
80560;DHT22;70065;42.700;23.316;2023-07-28T04:02:32;32.00;27.10
80560;DHT22;70065;42.700;23.316;2023-07-28T04:04:58;32.90;26.40
80560;DHT22;70065;42.700;23.316;2023-07-28T04:07:24;33.50;25.90
80560;DHT22;70065;42.700;23.316;2023-07-28T04:09:49;34.10;25.30
80560;DHT22;70065;42.700;23.316;2023-07-28T04:12:15;34.80;24.80
80560;DHT22;70065;42.700;23.316;2023-07-28T04:14:41;35.40;24.30
80560;DHT22;70065;42.700;23.316;2023-07-28T04:17:06;36.00;23.80
80560;DHT22;70065;42.700;23.316;2023-07-28T04:19:32;36.90;23.20
80560;DHT22;70065;42.700;23.316;2023-07-28T04:22:00;37.90;22.50
80560;DHT22;70065;42.700;23.316;2023-07-28T04:24:26;38.90;21.80
80560;DHT22;70065;42.700;23.316;2023-07-28T04:26:51;39.90;21.10
80560;DHT22;70065;42.700;23.316;2023-07-28T04:29:17;40.60;20.50
80560;DHT22;70065;42.700;23.316;2023-07-28T04:31:43;41.40;20.00
80560;DHT22;70065;42.700;23.316;2023-07-28T04:34:09;42.10;20.20
80560;DHT22;70065;42.700;23.316;2023-07-28T04:36:34;42.80;18.90
80560;DHT22;70065;42.700;23.316;2023-07-28T04:39:00;43.60;18.50
80560;DHT22;70065;42.700;23.316;2023-07-28T04:41:26;44.10;18.00
80560;DHT22;70065;42.700;23.316;2023-07-28T04:43:52;44.70;17.70
80560;DHT22;70065;42.700;23.316;2023-07-28T04:46:18;45.30;17.40
80560;DHT22;70065;42.700;23.316;2023-07-28T04:48:45;45.80;17.00
80560;DHT22;70065;42.700;23.316;2023-07-28T04:51:11;46.20;16.80
80560;DHT22;70065;42.700;23.316;2023-07-28T04:53:37;46.70;16.50
80560;DHT22;70065;42.700;23.316;2023-07-28T04:56:03;47.20;16.20
80560;DHT22;70065;42.700;23.316;2023-07-28T04:58:29;47.60;15.90
80560;DHT22;70065;42.700;23.316;2023-07-28T05:00:55;48.10;15.70
80560;DHT22;70065;42.700;23.316;2023-07-28T05:03:21;48.50;15.40
80560;DHT22;70065;42.700;23.316;2023-07-28T05:05:46;48.80;15.20
80560;DHT22;70065;42.700;23.316;2023-07-28T05:08:12;49.20;15.10
80560;DHT22;70065;42.700;23.316;2023-07-28T05:10:38;49.50;14.90
80560;DHT22;70065;42.700;23.316;2023-07-28T05:13:05;49.80;14.80
80560;DHT22;70065;42.700;23.316;2023-07-28T05:15:31;50.10;14.60
80560;DHT22;70065;42.700;23.316;2023-07-28T05:17:57;50.40;14.40
80560;DHT22;70065;42.700;23.316;2023-07-28T05:20:22;50.70;14.30
80560;DHT22;70065;42.700;23.316;2023-07-28T05:22:49;50.90;14.20
80560;DHT22;70065;42.700;23.316;2023-07-28T05:25:15;51.20;14.10
80560;DHT22;70065;42.700;23.316;2023-07-28T05:27:41;51.50;14.00
80560;DHT22;70065;42.700;23.316;2023-07-28T05:30:07;51.70;13.80
80560;DHT22;70065;42.700;23.316;2023-07-28T05:32:33;51.90;13.70
80560;DHT22;70065;42.700;23.316;2023-07-28T05:34:58;52.10;13.60
80560;DHT22;70065;42.700;23.316;2023-07-28T05:37:24;52.30;13.50
80560;DHT22;70065;42.700;23.316;2023-07-28T05:39:50;52.50;13.50
80560;DHT22;70065;42.700;23.316;2023-07-28T05:42:15;52.60;13.30
80560;DHT22;70065;42.700;23.316;2023-07-28T05:44:44;52.80;13.30
80560;DHT22;70065;42.700;23.316;2023-07-28T05:47:11;52.90;13.00
80560;DHT22;70065;42.700;23.316;2023-07-28T05:49:37;53.00;13.10
80560;DHT22;70065;42.700;23.316;2023-07-28T05:52:03;53.10;13.10
80560;DHT22;70065;42.700;23.316;2023-07-28T05:54:29;53.20;13.00
80560;DHT22;70065;42.700;23.316;2023-07-28T05:56:55;53.40;12.90
80560;DHT22;70065;42.700;23.316;2023-07-28T05:59:20;53.50;12.90
80560;DHT22;70065;42.700;23.316;2023-07-28T06:01:46;53.50;12.90
80560;DHT22;70065;42.700;23.316;2023-07-28T06:04:15;53.60;12.90
80560;DHT22;70065;42.700;23.316;2023-07-28T06:06:41;53.70;12.80
80560;DHT22;70065;42.700;23.316;2023-07-28T06:09:07;53.60;12.70
80560;DHT22;70065;42.700;23.316;2023-07-28T06:11:33;53.60;12.70
80560;DHT22;70065;42.700;23.316;2023-07-28T06:13:59;53.60;12.60
80560;DHT22;70065;42.700;23.316;2023-07-28T06:16:24;53.60;12.70
80560;DHT22;70065;42.700;23.316;2023-07-28T06:18:50;53.60;12.60
80560;DHT22;70065;42.700;23.316;2023-07-28T06:21:16;53.60;12.70
80560;DHT22;70065;42.700;23.316;2023-07-28T06:23:41;53.60;12.70
80560;DHT22;70065;42.700;23.316;2023-07-28T06:26:07;53.50;12.70
80560;DHT22;70065;42.700;23.316;2023-07-28T06:28:33;53.40;12.60
80560;DHT22;70065;42.700;23.316;2023-07-28T06:30:59;53.30;12.60
80560;DHT22;70065;42.700;23.316;2023-07-28T06:33:29;53.10;12.70
80560;DHT22;70065;42.700;23.316;2023-07-28T06:35:55;53.00;12.70
80560;DHT22;70065;42.700;23.316;2023-07-28T06:38:20;52.80;12.60
80560;DHT22;70065;42.700;23.316;2023-07-28T06:40:46;52.70;12.80
80560;DHT22;70065;42.700;23.316;2023-07-28T06:43:12;52.50;12.70
80560;DHT22;70065;42.700;23.316;2023-07-28T06:45:38;52.30;12.80
80560;DHT22;70065;42.700;23.316;2023-07-28T06:48:04;52.10;12.90
80560;DHT22;70065;42.700;23.316;2023-07-28T06:50:30;51.80;13.00
80560;DHT22;70065;42.700;23.316;2023-07-28T06:52:56;51.60;13.00
80560;DHT22;70065;42.700;23.316;2023-07-28T06:55:22;51.40;13.00
80560;DHT22;70065;42.700;23.316;2023-07-28T06:57:48;51.20;13.10
80560;DHT22;70065;42.700;23.316;2023-07-28T07:00:15;50.90;13.20
80560;DHT22;70065;42.700;23.316;2023-07-28T07:02:45;50.70;13.30
80560;DHT22;70065;42.700;23.316;2023-07-28T07:05:11;50.30;13.30
80560;DHT22;70065;42.700;23.316;2023-07-28T07:07:38;50.10;13.50
80560;DHT22;70065;42.700;23.316;2023-07-28T07:10:04;49.90;13.60
80560;DHT22;70065;42.700;23.316;2023-07-28T07:12:31;49.60;13.70
80560;DHT22;70065;42.700;23.316;2023-07-28T07:14:56;49.30;13.50
80560;DHT22;70065;42.700;23.316;2023-07-28T07:17:22;49.10;13.80
80560;DHT22;70065;42.700;23.316;2023-07-28T07:19:48;49.00;13.90
80560;DHT22;70065;42.700;23.316;2023-07-28T07:22:14;48.70;14.00
80560;DHT22;70065;42.700;23.316;2023-07-28T07:24:40;48.60;14.10
80560;DHT22;70065;42.700;23.316;2023-07-28T07:27:06;48.50;14.30
80560;DHT22;70065;42.700;23.316;2023-07-28T07:29:32;48.30;14.30
80560;DHT22;70065;42.700;23.316;2023-07-28T07:31:58;48.20;14.40
80560;DHT22;70065;42.700;23.316;2023-07-28T07:34:24;48.10;14.40
80560;DHT22;70065;42.700;23.316;2023-07-28T07:36:50;47.90;14.60
80560;DHT22;70065;42.700;23.316;2023-07-28T07:39:16;47.80;14.70
80560;DHT22;70065;42.700;23.316;2023-07-28T07:41:41;47.60;14.60
80560;DHT22;70065;42.700;23.316;2023-07-28T07:44:07;47.40;14.70
80560;DHT22;70065;42.700;23.316;2023-07-28T07:46:33;47.30;14.70
80560;DHT22;70065;42.700;23.316;2023-07-28T07:48:58;47.20;14.90
80560;DHT22;70065;42.700;23.316;2023-07-28T07:51:24;47.10;14.90
80560;DHT22;70065;42.700;23.316;2023-07-28T07:53:50;47.10;15.00
80560;DHT22;70065;42.700;23.316;2023-07-28T07:56:16;47.10;15.00
80560;DHT22;70065;42.700;23.316;2023-07-28T07:58:42;47.10;15.00
80560;DHT22;70065;42.700;23.316;2023-07-28T08:01:14;47.20;15.00
80560;DHT22;70065;42.700;23.316;2023-07-28T08:03:40;47.10;14.90
80560;DHT22;70065;42.700;23.316;2023-07-28T08:06:05;47.20;15.10
80560;DHT22;70065;42.700;23.316;2023-07-28T08:08:32;47.40;15.00
80560;DHT22;70065;42.700;23.316;2023-07-28T08:10:57;47.60;15.00
80560;DHT22;70065;42.700;23.316;2023-07-28T08:13:25;47.80;14.80
80560;DHT22;70065;42.700;23.316;2023-07-28T08:15:51;48.00;14.70
80560;DHT22;70065;42.700;23.316;2023-07-28T08:18:16;48.30;14.60
80560;DHT22;70065;42.700;23.316;2023-07-28T08:20:42;48.50;14.40
80560;DHT22;70065;42.700;23.316;2023-07-28T08:23:08;48.80;14.20
80560;DHT22;70065;42.700;23.316;2023-07-28T08:25:34;49.00;14.10
80560;DHT22;70065;42.700;23.316;2023-07-28T08:28:02;49.20;14.00
80560;DHT22;70065;42.700;23.316;2023-07-28T08:30:28;49.10;14.00
80560;DHT22;70065;42.700;23.316;2023-07-28T08:32:54;49.10;14.10
80560;DHT22;70065;42.700;23.316;2023-07-28T08:35:20;48.90;14.20
80560;DHT22;70065;42.700;23.316;2023-07-28T08:37:46;48.50;14.40
80560;DHT22;70065;42.700;23.316;2023-07-28T08:40:12;48.10;14.60
80560;DHT22;70065;42.700;23.316;2023-07-28T08:42:39;47.50;14.80
80560;DHT22;70065;42.700;23.316;2023-07-28T08:45:06;46.90;15.00
80560;DHT22;70065;42.700;23.316;2023-07-28T08:47:34;46.20;15.50
80560;DHT22;70065;42.700;23.316;2023-07-28T08:50:00;45.50;15.70
80560;DHT22;70065;42.700;23.316;2023-07-28T08:52:26;44.80;16.10
80560;DHT22;70065;42.700;23.316;2023-07-28T08:54:53;44.10;16.50
80560;DHT22;70065;42.700;23.316;2023-07-28T08:57:19;43.50;16.80
80560;DHT22;70065;42.700;23.316;2023-07-28T08:59:45;43.00;17.20
80560;DHT22;70065;42.700;23.316;2023-07-28T09:02:16;42.40;17.40
80560;DHT22;70065;42.700;23.316;2023-07-28T09:04:44;41.90;17.70
80560;DHT22;70065;42.700;23.316;2023-07-28T09:07:11;41.40;17.90
80560;DHT22;70065;42.700;23.316;2023-07-28T09:09:38;41.10;18.20
80560;DHT22;70065;42.700;23.316;2023-07-28T09:12:04;40.90;18.50
80560;DHT22;70065;42.700;23.316;2023-07-28T09:14:30;40.60;18.60
80560;DHT22;70065;42.700;23.316;2023-07-28T09:17:04;40.30;18.90
80560;DHT22;70065;42.700;23.316;2023-07-28T09:19:31;40.10;19.90
80560;DHT22;70065;42.700;23.316;2023-07-28T09:21:58;39.80;19.00
80560;DHT22;70065;42.700;23.316;2023-07-28T09:24:33;39.60;19.20
80560;DHT22;70065;42.700;23.316;2023-07-28T09:27:00;39.50;19.50
80560;DHT22;70065;42.700;23.316;2023-07-28T09:29:26;39.30;19.70
80560;DHT22;70065;42.700;23.316;2023-07-28T09:32:06;39.10;19.80
80560;DHT22;70065;42.700;23.316;2023-07-28T09:34:33;38.90;19.80
80560;DHT22;70065;42.700;23.316;2023-07-28T09:37:01;38.70;20.10
80560;DHT22;70065;42.700;23.316;2023-07-28T09:39:27;38.50;20.00
80560;DHT22;70065;42.700;23.316;2023-07-28T09:41:54;38.40;20.20
80560;DHT22;70065;42.700;23.316;2023-07-28T09:44:23;38.20;20.30
80560;DHT22;70065;42.700;23.316;2023-07-28T09:46:58;38.00;20.50
80560;DHT22;70065;42.700;23.316;2023-07-28T09:49:28;37.90;20.70
80560;DHT22;70065;42.700;23.316;2023-07-28T09:51:59;37.70;20.70
80560;DHT22;70065;42.700;23.316;2023-07-28T09:54:28;37.50;20.80
80560;DHT22;70065;42.700;23.316;2023-07-28T09:56:58;37.30;20.90
80560;DHT22;70065;42.700;23.316;2023-07-28T09:59:32;37.10;21.10
80560;DHT22;70065;42.700;23.316;2023-07-28T10:02:01;37.00;21.30
80560;DHT22;70065;42.700;23.316;2023-07-28T10:04:27;36.80;21.40
80560;DHT22;70065;42.700;23.316;2023-07-28T10:06:56;36.60;21.60
80560;DHT22;70065;42.700;23.316;2023-07-28T10:09:27;36.50;21.60
80560;DHT22;70065;42.700;23.316;2023-07-28T10:11:54;36.40;21.80
80560;DHT22;70065;42.700;23.316;2023-07-28T10:14:37;36.20;22.00
80560;DHT22;70065;42.700;23.316;2023-07-28T10:17:06;36.20;22.10
80560;DHT22;70065;42.700;23.316;2023-07-28T10:19:36;36.10;22.20
80560;DHT22;70065;42.700;23.316;2023-07-28T10:22:07;35.90;22.20
80560;DHT22;70065;42.700;23.316;2023-07-28T10:24:52;35.80;22.00
80560;DHT22;70065;42.700;23.316;2023-07-28T10:30:00;35.70;22.30
80560;DHT22;70065;42.700;23.316;2023-07-28T10:32:37;35.60;22.50
80560;DHT22;70065;42.700;23.316;2023-07-28T10:37:45;35.50;22.70
80560;DHT22;70065;42.700;23.316;2023-07-28T10:40:30;35.50;22.60
80560;DHT22;70065;42.700;23.316;2023-07-28T10:42:57;35.40;22.60
80560;DHT22;70065;42.700;23.316;2023-07-28T10:45:25;35.40;22.80
80560;DHT22;70065;42.700;23.316;2023-07-28T10:47:53;35.30;22.80
80560;DHT22;70065;42.700;23.316;2023-07-28T10:50:21;35.30;22.90
80560;DHT22;70065;42.700;23.316;2023-07-28T10:52:50;35.30;22.80
80560;DHT22;70065;42.700;23.316;2023-07-28T10:55:24;35.20;22.80
80560;DHT22;70065;42.700;23.316;2023-07-28T10:57:52;35.20;22.80
80560;DHT22;70065;42.700;23.316;2023-07-28T11:00:20;35.20;23.00
80560;DHT22;70065;42.700;23.316;2023-07-28T11:02:52;35.20;23.00
80560;DHT22;70065;42.700;23.316;2023-07-28T11:05:26;35.20;23.00
80560;DHT22;70065;42.700;23.316;2023-07-28T11:07:57;35.20;23.00
80560;DHT22;70065;42.700;23.316;2023-07-28T11:10:28;35.10;22.90
80560;DHT22;70065;42.700;23.316;2023-07-28T11:12:56;35.10;23.00
80560;DHT22;70065;42.700;23.316;2023-07-28T11:15:24;35.00;23.00
80560;DHT22;70065;42.700;23.316;2023-07-28T11:17:51;35.10;23.10
80560;DHT22;70065;42.700;23.316;2023-07-28T11:20:26;35.00;23.10
80560;DHT22;70065;42.700;23.316;2023-07-28T11:22:55;35.00;23.00
80560;DHT22;70065;42.700;23.316;2023-07-28T11:25:23;35.00;23.00
80560;DHT22;70065;42.700;23.316;2023-07-28T11:27:49;35.00;23.10
80560;DHT22;70065;42.700;23.316;2023-07-28T11:30:17;35.00;23.20
80560;DHT22;70065;42.700;23.316;2023-07-28T11:32:44;35.00;23.10
80560;DHT22;70065;42.700;23.316;2023-07-28T11:35:12;35.00;23.20
80560;DHT22;70065;42.700;23.316;2023-07-28T11:37:39;35.00;23.10
80560;DHT22;70065;42.700;23.316;2023-07-28T11:40:07;35.00;23.10
80560;DHT22;70065;42.700;23.316;2023-07-28T11:42:44;35.00;23.00
80560;DHT22;70065;42.700;23.316;2023-07-28T11:45:11;35.00;23.10
80560;DHT22;70065;42.700;23.316;2023-07-28T11:47:38;35.00;23.10
80560;DHT22;70065;42.700;23.316;2023-07-28T11:50:04;35.00;23.00
80560;DHT22;70065;42.700;23.316;2023-07-28T11:54:58;35.00;23.20
80560;DHT22;70065;42.700;23.316;2023-07-28T11:57:26;35.00;23.30
80560;DHT22;70065;42.700;23.316;2023-07-28T11:59:53;35.00;23.10
80560;DHT22;70065;42.700;23.316;2023-07-28T12:02:31;35.00;23.30
80560;DHT22;70065;42.700;23.316;2023-07-28T12:04:59;35.00;23.20
80560;DHT22;70065;42.700;23.316;2023-07-28T12:07:31;35.00;23.20
80560;DHT22;70065;42.700;23.316;2023-07-28T12:10:05;35.00;23.30
80560;DHT22;70065;42.700;23.316;2023-07-28T12:12:47;35.00;23.30
80560;DHT22;70065;42.700;23.316;2023-07-28T12:15:29;35.00;23.30
80560;DHT22;70065;42.700;23.316;2023-07-28T12:18:12;35.00;23.30
80560;DHT22;70065;42.700;23.316;2023-07-28T12:20:48;35.00;23.20
80560;DHT22;70065;42.700;23.316;2023-07-28T12:23:22;35.00;23.20
80560;DHT22;70065;42.700;23.316;2023-07-28T12:25:49;35.00;23.30
80560;DHT22;70065;42.700;23.316;2023-07-28T12:28:21;35.00;23.20
80560;DHT22;70065;42.700;23.316;2023-07-28T12:30:52;35.10;23.20
80560;DHT22;70065;42.700;23.316;2023-07-28T12:33:18;35.10;23.30
80560;DHT22;70065;42.700;23.316;2023-07-28T12:35:44;35.00;23.20
80560;DHT22;70065;42.700;23.316;2023-07-28T12:38:10;35.00;23.10
80560;DHT22;70065;42.700;23.316;2023-07-28T12:40:36;35.10;23.10
80560;DHT22;70065;42.700;23.316;2023-07-28T12:43:03;35.10;23.10
80560;DHT22;70065;42.700;23.316;2023-07-28T12:45:29;35.10;23.20
80560;DHT22;70065;42.700;23.316;2023-07-28T12:47:58;35.10;23.20
80560;DHT22;70065;42.700;23.316;2023-07-28T12:50:24;35.20;23.30
80560;DHT22;70065;42.700;23.316;2023-07-28T12:52:50;35.20;23.30
80560;DHT22;70065;42.700;23.316;2023-07-28T12:55:17;35.20;23.30
80560;DHT22;70065;42.700;23.316;2023-07-28T12:57:44;35.10;23.20
80560;DHT22;70065;42.700;23.316;2023-07-28T13:00:10;35.20;23.20
80560;DHT22;70065;42.700;23.316;2023-07-28T13:02:44;35.20;23.30
80560;DHT22;70065;42.700;23.316;2023-07-28T13:05:12;35.20;23.30
80560;DHT22;70065;42.700;23.316;2023-07-28T13:07:38;35.20;23.20
80560;DHT22;70065;42.700;23.316;2023-07-28T13:10:07;35.20;23.20
80560;DHT22;70065;42.700;23.316;2023-07-28T13:12:35;35.20;23.20
80560;DHT22;70065;42.700;23.316;2023-07-28T13:15:01;35.20;23.10
80560;DHT22;70065;42.700;23.316;2023-07-28T13:17:27;35.20;23.20
80560;DHT22;70065;42.700;23.316;2023-07-28T13:19:53;35.30;23.20
80560;DHT22;70065;42.700;23.316;2023-07-28T13:22:20;35.30;23.20
80560;DHT22;70065;42.700;23.316;2023-07-28T13:24:47;35.30;23.10
80560;DHT22;70065;42.700;23.316;2023-07-28T13:27:12;35.30;23.20
80560;DHT22;70065;42.700;23.316;2023-07-28T13:29:38;35.30;23.20
80560;DHT22;70065;42.700;23.316;2023-07-28T13:32:04;35.30;23.20
80560;DHT22;70065;42.700;23.316;2023-07-28T13:34:41;35.30;23.10
80560;DHT22;70065;42.700;23.316;2023-07-28T13:37:10;35.30;23.10
80560;DHT22;70065;42.700;23.316;2023-07-28T13:39:36;35.30;23.20
80560;DHT22;70065;42.700;23.316;2023-07-28T13:42:01;35.30;23.20
80560;DHT22;70065;42.700;23.316;2023-07-28T13:44:31;35.30;23.10
80560;DHT22;70065;42.700;23.316;2023-07-28T13:47:00;35.30;23.00
80560;DHT22;70065;42.700;23.316;2023-07-28T13:49:26;35.30;23.10
80560;DHT22;70065;42.700;23.316;2023-07-28T13:51:52;35.30;23.10
80560;DHT22;70065;42.700;23.316;2023-07-28T13:54:21;35.30;23.20
80560;DHT22;70065;42.700;23.316;2023-07-28T13:56:47;35.30;23.10
80560;DHT22;70065;42.700;23.316;2023-07-28T13:59:18;35.40;23.00
80560;DHT22;70065;42.700;23.316;2023-07-28T14:01:55;35.40;23.10
80560;DHT22;70065;42.700;23.316;2023-07-28T14:04:21;35.30;23.10
80560;DHT22;70065;42.700;23.316;2023-07-28T14:06:47;35.20;23.20
80560;DHT22;70065;42.700;23.316;2023-07-28T14:09:15;35.20;23.20
80560;DHT22;70065;42.700;23.316;2023-07-28T14:11:41;35.20;23.20
80560;DHT22;70065;42.700;23.316;2023-07-28T14:14:07;35.30;23.30
80560;DHT22;70065;42.700;23.316;2023-07-28T14:16:33;35.30;23.20
80560;DHT22;70065;42.700;23.316;2023-07-28T14:18:59;35.20;23.20
80560;DHT22;70065;42.700;23.316;2023-07-28T14:21:27;35.30;23.20
80560;DHT22;70065;42.700;23.316;2023-07-28T14:23:53;35.30;23.20
80560;DHT22;70065;42.700;23.316;2023-07-28T14:26:19;35.30;23.20
80560;DHT22;70065;42.700;23.316;2023-07-28T14:28:46;35.30;23.20
80560;DHT22;70065;42.700;23.316;2023-07-28T14:31:12;35.30;23.20
80560;DHT22;70065;42.700;23.316;2023-07-28T14:33:37;35.40;23.20
80560;DHT22;70065;42.700;23.316;2023-07-28T14:36:03;35.40;23.20
80560;DHT22;70065;42.700;23.316;2023-07-28T14:38:29;35.40;23.20
80560;DHT22;70065;42.700;23.316;2023-07-28T14:40:57;35.40;23.20
80560;DHT22;70065;42.700;23.316;2023-07-28T14:43:24;35.40;23.10
80560;DHT22;70065;42.700;23.316;2023-07-28T14:45:50;35.40;23.20
80560;DHT22;70065;42.700;23.316;2023-07-28T14:48:17;35.40;23.20
80560;DHT22;70065;42.700;23.316;2023-07-28T14:50:42;35.40;23.20
80560;DHT22;70065;42.700;23.316;2023-07-28T14:55:57;35.40;23.10
80560;DHT22;70065;42.700;23.316;2023-07-28T14:58:24;35.40;23.20
80560;DHT22;70065;42.700;23.316;2023-07-28T15:00:50;35.40;23.20
80560;DHT22;70065;42.700;23.316;2023-07-28T15:03:16;35.40;23.20
80560;DHT22;70065;42.700;23.316;2023-07-28T15:05:41;35.40;23.10
80560;DHT22;70065;42.700;23.316;2023-07-28T15:08:07;35.40;23.30
80560;DHT22;70065;42.700;23.316;2023-07-28T15:10:33;35.30;23.20
80560;DHT22;70065;42.700;23.316;2023-07-28T15:12:58;35.30;23.20
80560;DHT22;70065;42.700;23.316;2023-07-28T15:15:24;35.30;23.30
80560;DHT22;70065;42.700;23.316;2023-07-28T15:17:51;35.30;23.30
80560;DHT22;70065;42.700;23.316;2023-07-28T15:20:17;35.30;23.30
80560;DHT22;70065;42.700;23.316;2023-07-28T15:22:46;35.30;23.20
80560;DHT22;70065;42.700;23.316;2023-07-28T15:25:12;35.30;23.30
80560;DHT22;70065;42.700;23.316;2023-07-28T15:27:40;35.20;23.30
80560;DHT22;70065;42.700;23.316;2023-07-28T15:30:10;35.20;23.30